createdAt,value
2023-11-25T00:00:42.676Z,9.88
2023-11-25T00:03:10.704Z,3.67
2023-11-25T00:05:40.641Z,6.00
2023-11-25T00:08:09.671Z,6.97
2023-11-25T00:10:38.709Z,6.75
2023-11-25T00:13:07.609Z,2.75
2023-11-25T00:15:36.729Z,7.05
2023-11-25T00:18:05.537Z,2.85
2023-11-25T00:20:37.481Z,8.30
2023-11-25T00:23:07.854Z,2.92
2023-11-25T00:25:37.385Z,5.25
2023-11-25T00:28:08.052Z,3.08
2023-11-25T00:30:36.656Z,1.17
2023-11-25T00:33:05.954Z,5.57
2023-11-25T00:35:35.106Z,2.15
2023-11-25T00:38:03.758Z,2.92
2023-11-25T00:40:34.115Z,3.22
2023-11-25T00:43:02.945Z,3.25
2023-11-25T00:45:31.858Z,3.65
2023-11-25T00:48:01.187Z,3.95
2023-11-25T00:50:30.085Z,2.88
2023-11-25T00:52:59.166Z,5.00
2023-11-25T00:55:27.885Z,1.80
2023-11-25T00:57:58.274Z,3.28
2023-11-25T01:00:27.857Z,2.33
2023-11-25T01:02:57.963Z,3.42
2023-11-25T01:05:27.011Z,2.78
2023-11-25T01:07:56.485Z,4.70
2023-11-25T01:10:27.871Z,2.27
2023-11-25T01:12:57.926Z,5.97
2023-11-25T01:15:27.509Z,6.63
2023-11-25T01:17:56.187Z,3.47
2023-11-25T01:20:24.822Z,4.60
2023-11-25T01:22:53.455Z,6.70
2023-11-25T01:25:22.403Z,11.57
2023-11-25T01:27:52.037Z,2.90
2023-11-25T01:30:22.625Z,6.05
2023-11-25T01:35:20.518Z,0.40
2023-11-25T01:37:49.576Z,1.10
2023-11-25T01:40:18.526Z,2.97
2023-11-25T01:42:47.526Z,3.58
2023-11-25T01:45:16.123Z,1.35
2023-11-25T01:47:46.421Z,0.45
2023-11-25T01:50:16.267Z,0.40
2023-11-25T01:52:44.906Z,1.00
2023-11-25T01:55:14.653Z,0.77
2023-11-25T01:57:45.231Z,1.63
2023-11-25T02:00:16.246Z,1.65
2023-11-25T02:02:50.744Z,0.57
2023-11-25T02:05:19.737Z,0.65
2023-11-25T02:07:48.848Z,3.08
2023-11-25T02:10:17.833Z,1.88
2023-11-25T02:12:47.343Z,1.17
2023-11-25T02:15:16.379Z,2.45
2023-11-25T02:17:47.463Z,1.27
2023-11-25T02:20:18.090Z,3.90
2023-11-25T02:22:59.609Z,1.92
2023-11-25T02:25:28.834Z,2.00
2023-11-25T02:27:58.026Z,2.65
2023-11-25T02:30:27.656Z,1.92
2023-11-25T02:32:56.745Z,2.15
2023-11-25T02:35:26.362Z,1.20
2023-11-25T02:37:56.887Z,1.55
2023-11-25T02:40:25.670Z,1.55
2023-11-25T02:42:54.973Z,3.45
2023-11-25T02:45:24.731Z,5.00
2023-11-25T02:47:54.298Z,0.60
2023-11-25T02:50:23.628Z,2.00
2023-11-25T02:52:52.234Z,1.60
2023-11-25T02:55:22.814Z,3.30
2023-11-25T02:57:53.283Z,0.82
2023-11-25T03:00:30.269Z,1.20
2023-11-25T03:03:10.947Z,3.17
2023-11-25T03:05:39.640Z,3.28
2023-11-25T03:08:11.618Z,1.55
2023-11-25T03:10:47.673Z,2.70
2023-11-25T03:13:18.146Z,1.92
2023-11-25T03:15:47.407Z,1.88
2023-11-25T03:18:16.089Z,1.17
2023-11-25T03:20:44.962Z,3.00
2023-11-25T03:23:14.253Z,2.55
2023-11-25T03:25:45.293Z,4.05
2023-11-25T03:28:14.381Z,2.25
2023-11-25T03:30:43.032Z,3.75
2023-11-25T03:33:11.910Z,4.05
2023-11-25T03:35:42.842Z,2.40
2023-11-25T03:38:12.069Z,1.23
2023-11-25T03:40:40.712Z,2.28
2023-11-25T03:43:10.805Z,2.85
2023-11-25T03:45:39.947Z,2.15
2023-11-25T03:48:09.473Z,2.78
2023-11-25T03:50:38.473Z,0.87
2023-11-25T03:53:07.283Z,3.58
2023-11-25T03:55:37.191Z,2.73
2023-11-25T03:58:06.073Z,2.95
2023-11-25T04:00:36.121Z,2.78
2023-11-25T04:03:05.402Z,3.05
2023-11-25T04:05:34.390Z,1.50
2023-11-25T04:08:03.412Z,4.13
2023-11-25T04:10:32.210Z,5.00
2023-11-25T04:13:01.011Z,3.33
2023-11-25T04:15:29.738Z,2.08
2023-11-25T04:17:59.807Z,2.40
2023-11-25T04:20:31.587Z,2.38
2023-11-25T04:23:07.675Z,0.90
2023-11-25T04:25:38.113Z,3.90
2023-11-25T04:28:08.587Z,1.40
2023-11-25T04:30:37.959Z,1.85
2023-11-25T04:33:10.509Z,2.08
2023-11-25T04:35:39.651Z,3.25
2023-11-25T04:38:09.508Z,2.60
2023-11-25T04:40:38.563Z,3.83
2023-11-25T04:43:07.718Z,3.95
2023-11-25T04:45:36.450Z,2.75
2023-11-25T04:48:06.132Z,2.78
2023-11-25T04:50:36.506Z,3.83
2023-11-25T04:53:05.165Z,3.10
2023-11-25T04:55:34.402Z,5.03
2023-11-25T04:58:03.064Z,1.90
2023-11-25T05:00:31.976Z,2.72
2023-11-25T05:03:00.819Z,2.72
2023-11-25T05:05:29.745Z,3.40
2023-11-25T05:07:59.684Z,4.57
2023-11-25T05:10:29.629Z,2.13
2023-11-25T05:12:58.443Z,1.67
2023-11-25T05:15:27.205Z,3.42
2023-11-25T05:17:56.261Z,3.88
2023-11-25T05:20:25.148Z,2.55
2023-11-25T05:22:54.535Z,2.40
2023-11-25T05:25:24.460Z,7.25
2023-11-25T05:27:53.498Z,2.53
2023-11-25T05:30:23.903Z,4.28
2023-11-25T05:32:53.070Z,4.57
2023-11-25T05:35:21.885Z,6.32
2023-11-25T05:37:50.892Z,5.28
2023-11-25T05:40:19.905Z,1.90
2023-11-25T05:42:55.397Z,2.28
2023-11-25T05:45:27.802Z,2.90
2023-11-25T05:47:57.627Z,3.10
2023-11-25T05:50:26.619Z,3.28
2023-11-25T05:52:57.290Z,9.48
2023-11-25T05:55:27.895Z,2.28
2023-11-25T05:58:00.463Z,2.85
2023-11-25T06:00:31.112Z,1.10
2023-11-25T06:03:00.040Z,1.88
2023-11-25T06:05:30.043Z,1.60
2023-11-25T06:10:27.805Z,2.22
2023-11-25T06:12:58.012Z,3.05
2023-11-25T06:15:27.971Z,1.50
2023-11-25T06:17:56.951Z,2.15
2023-11-25T06:20:26.654Z,5.43
2023-11-25T06:22:56.442Z,15.85
2023-11-25T06:25:25.407Z,13.48
2023-11-25T06:27:54.355Z,14.02
2023-11-25T06:30:24.702Z,10.27
2023-11-25T06:32:53.371Z,4.35
2023-11-25T06:35:24.713Z,3.28
2023-11-25T06:37:53.402Z,2.25
2023-11-25T06:40:22.685Z,2.78
2023-11-25T06:42:51.552Z,3.88
2023-11-25T06:45:20.680Z,3.15
2023-11-25T06:47:51.603Z,4.88
2023-11-25T06:50:21.700Z,4.75
2023-11-25T06:52:50.858Z,5.72
2023-11-25T06:55:21.326Z,2.75
2023-11-25T06:57:50.843Z,3.28
2023-11-25T07:00:20.218Z,4.75
2023-11-25T07:02:51.294Z,2.20
2023-11-25T07:05:19.988Z,3.28
2023-11-25T07:07:48.610Z,5.63
2023-11-25T07:10:17.831Z,4.80
2023-11-25T07:12:48.162Z,2.92
2023-11-25T07:15:17.366Z,6.93
2023-11-25T07:17:47.221Z,3.80
2023-11-25T07:20:19.670Z,4.30
2023-11-25T07:22:48.713Z,1.88
2023-11-25T07:25:19.808Z,4.68
2023-11-25T07:27:49.268Z,4.95
2023-11-25T07:30:18.279Z,5.50
2023-11-25T07:32:47.246Z,2.78
2023-11-25T07:35:17.647Z,4.07
2023-11-25T07:37:46.326Z,5.82
2023-11-25T07:40:16.926Z,3.97
2023-11-25T07:42:49.788Z,8.02
2023-11-25T07:45:19.839Z,3.17
2023-11-25T07:47:48.843Z,5.25
2023-11-25T07:50:19.620Z,2.88
2023-11-25T07:55:17.987Z,2.97
2023-11-25T07:57:49.336Z,3.50
2023-11-25T08:00:21.075Z,4.07
2023-11-25T08:02:50.405Z,4.43
2023-11-25T08:05:26.615Z,4.32
2023-11-25T08:07:56.739Z,4.15
2023-11-25T08:10:32.415Z,3.50
2023-11-25T08:13:01.296Z,5.35
2023-11-25T08:15:30.638Z,3.60
2023-11-25T08:17:59.796Z,4.07
2023-11-25T08:20:30.176Z,3.50
2023-11-25T08:22:59.083Z,5.20
2023-11-25T08:25:27.703Z,6.10
2023-11-25T08:27:56.654Z,5.15
2023-11-25T08:30:25.778Z,3.88
2023-11-25T08:32:55.037Z,2.85
2023-11-25T08:35:23.844Z,3.13
2023-11-25T08:37:53.903Z,4.13
2023-11-25T08:40:23.688Z,5.18
2023-11-25T08:42:52.740Z,3.95
2023-11-25T08:45:22.018Z,5.50
2023-11-25T08:47:50.955Z,6.78
2023-11-25T08:50:20.357Z,2.20
2023-11-25T08:52:50.386Z,7.10
2023-11-25T08:55:23.554Z,5.80
2023-11-25T08:57:54.015Z,6.15
2023-11-25T09:00:23.600Z,9.10
2023-11-25T09:02:55.213Z,4.65
2023-11-25T09:05:27.362Z,8.38
2023-11-25T09:07:57.523Z,5.05
2023-11-25T09:10:28.172Z,5.10
2023-11-25T09:15:25.834Z,7.60
2023-11-25T09:17:54.736Z,7.90
2023-11-25T09:20:24.276Z,7.70
2023-11-25T09:22:53.858Z,6.28
2023-11-25T09:25:22.964Z,4.38
2023-11-25T09:27:53.743Z,8.35
2023-11-25T09:32:50.923Z,7.07
2023-11-25T09:35:19.578Z,6.25
2023-11-25T09:37:49.785Z,7.53
2023-11-25T09:45:23.132Z,5.15
2023-11-25T09:47:52.619Z,12.63
2023-11-25T09:50:23.309Z,9.30
2023-11-25T09:55:24.479Z,9.32
2023-11-25T09:58:00.918Z,13.85
2023-11-25T10:00:32.285Z,2.88
2023-11-25T10:03:03.569Z,5.57
2023-11-25T10:05:33.829Z,4.43
2023-11-25T10:08:02.975Z,6.38
2023-11-25T10:10:31.847Z,10.57
2023-11-25T10:13:05.323Z,5.43
2023-11-25T10:15:47.759Z,8.25
2023-11-25T10:18:16.988Z,11.00
2023-11-25T10:20:48.696Z,4.65
2023-11-25T10:23:25.597Z,8.15
2023-11-25T10:25:56.492Z,7.97
2023-11-25T10:28:32.628Z,8.65
2023-11-25T10:31:06.082Z,12.57
2023-11-25T10:33:35.690Z,8.52
2023-11-25T10:36:05.641Z,9.98
2023-11-25T10:38:34.359Z,7.40
2023-11-25T10:41:04.620Z,12.32
2023-11-25T10:43:34.794Z,10.75
2023-11-25T10:46:06.968Z,6.28
2023-11-25T10:48:37.410Z,9.25
2023-11-25T10:51:07.416Z,6.82
2023-11-25T10:53:39.045Z,13.15
2023-11-25T10:56:08.764Z,8.13
2023-11-25T10:58:38.252Z,6.38
2023-11-25T11:01:09.451Z,8.32
2023-11-25T11:03:55.112Z,12.68
2023-11-25T11:06:31.065Z,9.07
2023-11-25T11:09:05.680Z,12.38
2023-11-25T11:11:47.420Z,3.30
2023-11-25T11:14:21.502Z,8.23
2023-11-25T11:17:10.653Z,11.02
2023-11-25T11:19:42.949Z,9.80
2023-11-25T11:22:13.941Z,6.20
2023-11-25T11:25:03.253Z,6.05
2023-11-25T11:27:43.078Z,8.65
2023-11-25T11:30:18.117Z,9.30
2023-11-25T11:32:50.007Z,6.78
2023-11-25T11:35:22.542Z,9.93
2023-11-25T11:37:51.932Z,7.72
2023-11-25T11:40:23.687Z,10.03
2023-11-25T11:42:58.209Z,5.32
2023-11-25T11:45:27.496Z,15.13
2023-11-25T11:47:59.102Z,7.68
2023-11-25T11:50:30.928Z,6.55
2023-11-25T11:53:16.231Z,8.70
2023-11-25T11:55:51.433Z,11.32
2023-11-25T11:58:21.839Z,6.15
2023-11-25T12:00:54.562Z,5.85
2023-11-25T12:03:26.009Z,9.63
2023-11-25T12:05:55.159Z,15.13
2023-11-25T12:08:24.755Z,10.32
2023-11-25T12:10:54.946Z,7.75
2023-11-25T12:13:27.397Z,6.90
2023-11-25T12:16:00.366Z,13.77
2023-11-25T12:18:35.161Z,9.65
2023-11-25T12:21:05.935Z,6.55
2023-11-25T12:26:09.154Z,10.15
2023-11-25T12:31:12.128Z,6.55
2023-11-25T12:33:42.228Z,6.30
2023-11-25T12:36:11.249Z,3.38
2023-11-25T12:38:39.992Z,9.77
2023-11-25T12:41:13.428Z,8.55
2023-11-25T12:44:07.181Z,6.20
2023-11-25T12:46:36.125Z,9.05
2023-11-25T12:51:58.734Z,4.35
2023-11-25T12:54:27.543Z,4.85
2023-11-25T12:56:58.308Z,8.73
2023-11-25T13:02:05.903Z,4.22
2023-11-25T13:04:34.810Z,7.85
2023-11-25T13:07:05.460Z,7.45
2023-11-25T13:12:03.614Z,6.07
2023-11-25T13:14:32.458Z,6.95
2023-11-25T13:17:02.842Z,10.57
2023-11-25T13:22:02.015Z,7.57
2023-11-25T13:24:31.957Z,10.45
2023-11-25T13:27:00.627Z,4.03
2023-11-25T13:29:29.226Z,7.72
2023-11-25T13:31:58.814Z,7.75
2023-11-25T13:34:27.796Z,5.00
2023-11-25T13:36:56.613Z,6.75
2023-11-25T13:39:25.187Z,6.55
2023-11-25T13:41:55.157Z,7.03
2023-11-25T13:44:24.094Z,5.07
2023-11-25T13:46:52.769Z,6.15
2023-11-25T13:49:21.543Z,6.05
2023-11-25T13:51:50.593Z,9.90
2023-11-25T13:54:19.193Z,5.03
2023-11-25T13:56:48.278Z,7.70
2023-11-25T13:59:18.749Z,10.25
2023-11-25T14:04:17.066Z,11.30
2023-11-25T14:06:45.923Z,6.85
2023-11-25T14:09:19.111Z,5.10
2023-11-25T14:11:48.091Z,7.28
2023-11-25T14:14:18.285Z,5.15
2023-11-25T14:16:49.817Z,8.63
2023-11-25T14:19:19.508Z,6.82
2023-11-25T14:21:48.455Z,8.75
2023-11-25T14:24:17.918Z,6.32
2023-11-25T14:26:47.689Z,10.88
2023-11-25T14:31:48.060Z,8.43
2023-11-25T14:34:16.664Z,7.40
2023-11-25T14:36:47.506Z,13.23
2023-11-25T14:39:19.539Z,11.45
2023-11-25T14:41:49.252Z,10.27
2023-11-25T14:44:19.458Z,6.80
2023-11-25T14:46:52.475Z,7.60
2023-11-25T14:49:21.948Z,10.13
2023-11-25T14:51:50.512Z,10.05
2023-11-25T14:54:19.703Z,13.05
2023-11-25T14:56:48.531Z,10.27
2023-11-25T14:59:17.379Z,6.18
2023-11-25T15:01:48.265Z,9.18
2023-11-25T15:04:18.110Z,13.35
2023-11-25T15:06:47.443Z,6.45
2023-11-25T15:09:18.774Z,11.75
2023-11-25T15:11:47.631Z,8.32
2023-11-25T15:14:16.535Z,9.05
2023-11-25T15:16:47.307Z,8.93
2023-11-25T15:19:16.239Z,14.77
2023-11-25T15:21:44.797Z,15.55
2023-11-25T15:24:13.912Z,7.22
2023-11-25T15:26:44.515Z,10.23
2023-11-25T15:29:13.394Z,9.18
2023-11-25T15:31:42.179Z,10.25
2023-11-25T15:34:14.014Z,7.45
2023-11-25T15:36:43.455Z,15.93
2023-11-25T15:39:17.698Z,13.98
2023-11-25T15:41:46.848Z,11.23
2023-11-25T15:44:16.517Z,6.40
2023-11-25T15:46:46.261Z,8.45
2023-11-25T15:49:17.096Z,7.67
2023-11-25T15:51:46.430Z,7.55
2023-11-25T15:54:15.444Z,7.60
2023-11-25T15:56:44.732Z,11.88
2023-11-25T15:59:13.363Z,11.15
2023-11-25T16:01:42.084Z,8.15
2023-11-25T16:04:11.181Z,7.90
2023-11-25T16:06:41.249Z,11.98
2023-11-25T16:09:10.206Z,14.05
2023-11-25T16:11:38.731Z,8.27
2023-11-25T16:14:07.870Z,7.93
2023-11-25T16:16:39.014Z,9.10
2023-11-25T16:19:08.061Z,10.90
2023-11-25T16:21:37.915Z,5.07
2023-11-25T16:24:09.566Z,7.88
2023-11-25T16:26:39.532Z,9.40
2023-11-25T16:29:09.752Z,9.88
2023-11-25T16:31:38.418Z,13.40
2023-11-25T16:34:07.385Z,11.40
2023-11-25T16:36:36.545Z,8.30
2023-11-25T16:39:08.903Z,9.38
2023-11-25T16:41:38.161Z,8.82
2023-11-25T16:44:07.219Z,6.15
2023-11-25T16:46:36.407Z,10.98
2023-11-25T16:49:09.046Z,7.57
2023-11-25T16:51:40.047Z,10.35
2023-11-25T16:54:10.703Z,8.10
2023-11-25T16:56:39.344Z,6.88
2023-11-25T16:59:08.024Z,16.42
2023-11-25T17:01:37.374Z,11.95
2023-11-25T17:04:07.921Z,10.65
2023-11-25T17:06:37.390Z,12.02
2023-11-25T17:09:07.015Z,7.70
2023-11-25T17:11:37.963Z,8.35
2023-11-25T17:14:07.026Z,9.65
2023-11-25T17:16:36.735Z,7.55
2023-11-25T17:19:06.270Z,6.20
2023-11-25T17:21:35.377Z,7.97
2023-11-25T17:24:05.066Z,8.30
2023-11-25T17:26:33.972Z,11.93
2023-11-25T17:29:04.885Z,7.25
2023-11-25T17:31:33.819Z,6.78
2023-11-25T17:34:02.638Z,11.35
2023-11-25T17:36:31.204Z,12.63
2023-11-25T17:39:00.282Z,7.43
2023-11-25T17:41:29.633Z,12.40
2023-11-25T17:44:01.819Z,12.80
2023-11-25T17:46:32.133Z,5.80
2023-11-25T17:49:00.982Z,6.68
2023-11-25T17:51:32.472Z,7.75
2023-11-25T17:54:01.472Z,6.65
2023-11-25T17:56:30.506Z,10.30
2023-11-25T17:58:59.122Z,12.00
2023-11-25T18:01:27.876Z,12.55
2023-11-25T18:03:58.497Z,8.52
2023-11-25T18:08:56.129Z,9.57
2023-11-25T18:11:25.220Z,9.63
2023-11-25T18:13:54.255Z,7.72
2023-11-25T18:16:23.352Z,6.60
2023-11-25T18:18:52.701Z,6.93
2023-11-25T18:21:23.535Z,10.95
2023-11-25T18:26:20.705Z,11.80
2023-11-25T18:28:49.878Z,5.93
2023-11-25T18:31:19.529Z,9.02
2023-11-25T18:33:48.682Z,9.27
2023-11-25T18:36:17.354Z,7.60
2023-11-25T18:38:47.687Z,6.53
2023-11-25T18:41:16.791Z,4.93
2023-11-25T18:43:45.696Z,8.23
2023-11-25T18:46:14.618Z,6.65
2023-11-25T18:48:43.242Z,10.63
2023-11-25T18:51:12.188Z,4.60
2023-11-25T18:53:40.915Z,12.35
2023-11-25T18:56:12.431Z,8.98
2023-11-25T18:58:41.398Z,7.97
2023-11-25T19:01:10.803Z,4.80
2023-11-25T19:03:39.878Z,6.40
2023-11-25T19:06:09.049Z,5.25
2023-11-25T19:08:39.169Z,6.90
2023-11-25T19:11:09.216Z,8.02
2023-11-25T19:13:40.085Z,22.15
2023-11-25T19:16:11.638Z,12.73
2023-11-25T19:18:41.894Z,4.72
2023-11-25T19:21:12.418Z,8.80
2023-11-25T19:23:41.573Z,7.40
2023-11-25T19:26:10.787Z,8.02
2023-11-25T19:28:40.813Z,7.55
2023-11-25T19:31:09.371Z,7.55
2023-11-25T19:33:38.558Z,7.78
2023-11-25T19:36:08.405Z,5.80
2023-11-25T19:38:37.035Z,6.05
2023-11-25T19:41:05.706Z,8.35
2023-11-25T19:43:35.301Z,7.35
2023-11-25T19:46:05.769Z,6.83
2023-11-25T19:48:37.013Z,9.82
2023-11-25T19:51:05.825Z,5.43
2023-11-25T19:53:49.576Z,4.95
2023-11-25T19:56:20.932Z,6.03
2023-11-25T19:58:49.890Z,8.07
2023-11-25T20:01:20.008Z,5.55
2023-11-25T20:03:48.958Z,6.03
2023-11-25T20:06:17.576Z,4.55
2023-11-25T20:08:46.516Z,5.90
2023-11-25T20:11:15.080Z,5.00
2023-11-25T20:13:43.792Z,5.50
2023-11-25T20:16:12.471Z,7.00
2023-11-25T20:18:42.588Z,10.00
2023-11-25T20:21:11.367Z,5.38
2023-11-25T20:23:41.931Z,8.30
2023-11-25T20:26:11.907Z,3.97
2023-11-25T20:28:40.651Z,4.60
2023-11-25T20:31:09.886Z,5.03
2023-11-25T20:33:39.770Z,5.35
2023-11-25T20:36:11.106Z,5.95
2023-11-25T20:38:39.931Z,5.13
2023-11-25T20:41:10.350Z,4.03
2023-11-25T20:46:08.965Z,3.35
2023-11-25T20:48:39.516Z,5.57
2023-11-25T20:53:40.949Z,4.57
2023-11-25T20:56:09.871Z,4.25
2023-11-25T20:58:38.739Z,7.50
2023-11-25T21:01:08.862Z,3.97
2023-11-25T21:03:37.618Z,5.20
2023-11-25T21:06:07.473Z,9.57
2023-11-25T21:08:37.490Z,12.77
2023-11-25T21:11:06.348Z,9.13
2023-11-25T21:13:36.161Z,8.13
2023-11-25T21:16:04.968Z,11.27
2023-11-25T21:18:34.360Z,6.13
2023-11-25T21:21:04.087Z,4.93
2023-11-25T21:23:43.754Z,5.75
2023-11-25T21:26:13.874Z,3.70
2023-11-25T21:28:43.117Z,3.58
2023-11-25T21:31:13.118Z,6.18
2023-11-25T21:33:41.726Z,2.75
2023-11-25T21:36:10.612Z,6.63
2023-11-25T21:38:39.156Z,5.10
2023-11-25T21:41:11.349Z,4.32
2023-11-25T21:43:40.742Z,4.60
2023-11-25T21:46:10.170Z,3.63
2023-11-25T21:48:41.014Z,4.20
2023-11-25T21:51:10.370Z,3.13
2023-11-25T21:53:39.336Z,3.97
2023-11-25T21:56:10.410Z,3.17
2023-11-25T21:58:56.589Z,3.83
2023-11-25T22:01:50.729Z,3.35
2023-11-25T22:04:19.341Z,2.95
2023-11-25T22:06:47.952Z,2.97
2023-11-25T22:09:16.983Z,4.30
2023-11-25T22:11:47.406Z,4.60
2023-11-25T22:14:16.440Z,4.03
2023-11-25T22:16:45.046Z,3.92
2023-11-25T22:19:14.394Z,4.32
2023-11-25T22:21:43.096Z,5.88
2023-11-25T22:24:13.270Z,3.45
2023-11-25T22:26:48.739Z,5.07
2023-11-25T22:29:18.808Z,6.53
2023-11-25T22:31:47.573Z,5.28
2023-11-25T22:34:16.647Z,6.80
2023-11-25T22:36:45.537Z,5.90
2023-11-25T22:39:14.382Z,3.97
2023-11-25T22:41:43.043Z,4.30
2023-11-25T22:44:11.774Z,3.28
2023-11-25T22:46:44.621Z,5.68
2023-11-25T22:49:13.847Z,4.22
2023-11-25T22:51:42.514Z,5.07
2023-11-25T22:54:13.032Z,6.60
2023-11-25T22:59:10.252Z,4.07
2023-11-25T23:01:38.976Z,5.22
2023-11-25T23:04:09.664Z,4.93
2023-11-25T23:06:41.942Z,3.30
2023-11-25T23:09:10.613Z,5.68
2023-11-25T23:11:39.165Z,3.03
2023-11-25T23:14:08.468Z,4.75
2023-11-25T23:16:37.083Z,3.90
2023-11-25T23:19:06.065Z,2.45
2023-11-25T23:21:36.063Z,3.75
2023-11-25T23:24:05.585Z,2.97
2023-11-25T23:26:34.733Z,2.25
2023-11-25T23:29:03.333Z,3.22
2023-11-25T23:31:32.607Z,2.05
2023-11-25T23:34:01.570Z,1.42
2023-11-25T23:36:30.287Z,2.67
2023-11-25T23:39:02.568Z,3.30
2023-11-25T23:41:31.304Z,1.95
2023-11-25T23:43:59.867Z,2.60
2023-11-25T23:46:28.646Z,1.63
2023-11-25T23:48:57.292Z,1.98
2023-11-25T23:51:25.861Z,1.63
2023-11-25T23:53:54.711Z,3.58
2023-11-25T23:56:25.008Z,1.77
